createdAt,value
2023-02-05T00:01:20.829Z,67.10
2023-02-05T00:03:47.682Z,67.40
2023-02-05T00:06:14.445Z,67.30
2023-02-05T00:08:41.205Z,67.90
2023-02-05T00:11:09.575Z,67.30
2023-02-05T00:13:37.292Z,67.30
2023-02-05T00:16:11.381Z,67.40
2023-02-05T00:18:38.132Z,67.30
2023-02-05T00:21:05.834Z,67.30
2023-02-05T00:23:32.706Z,67.20
2023-02-05T00:25:59.522Z,67.30
2023-02-05T00:28:26.261Z,67.20
2023-02-05T00:30:53.192Z,68.00
2023-02-05T00:33:20.096Z,67.30
2023-02-05T00:35:46.958Z,67.40
2023-02-05T00:38:13.699Z,67.20
2023-02-05T00:40:40.438Z,67.30
2023-02-05T00:43:07.135Z,67.30
2023-02-05T00:45:35.833Z,67.40
2023-02-05T00:48:03.604Z,67.30
2023-02-05T00:50:30.408Z,67.40
2023-02-05T00:52:57.112Z,67.20
2023-02-05T00:55:23.954Z,68.00
2023-02-05T00:57:50.685Z,67.10
2023-02-05T01:00:17.721Z,67.10
2023-02-05T01:02:44.560Z,67.00
2023-02-05T01:05:11.385Z,67.10
2023-02-05T01:07:38.175Z,67.00
2023-02-05T01:10:05.246Z,67.00
2023-02-05T01:12:33.316Z,67.10
2023-02-05T01:15:03.648Z,67.30
2023-02-05T01:17:30.479Z,67.10
2023-02-05T01:19:57.432Z,67.10
2023-02-05T01:22:24.266Z,67.00
2023-02-05T01:24:51.076Z,66.80
2023-02-05T01:27:17.822Z,66.70
2023-02-05T01:29:44.579Z,66.70
2023-02-05T01:32:11.342Z,66.60
2023-02-05T01:34:38.127Z,66.70
2023-02-05T01:37:04.880Z,66.70
2023-02-05T01:39:31.629Z,66.50
2023-02-05T01:41:58.456Z,66.50
2023-02-05T01:44:25.276Z,66.50
2023-02-05T01:46:53.136Z,66.50
2023-02-05T01:49:23.204Z,66.50
2023-02-05T01:51:50.065Z,66.70
2023-02-05T01:54:17.096Z,66.60
2023-02-05T01:56:46.988Z,66.70
2023-02-05T01:59:26.278Z,66.80
2023-02-05T02:01:53.659Z,66.70
2023-02-05T02:04:53.701Z,67.50
2023-02-05T02:07:21.653Z,66.70
2023-02-05T02:09:48.387Z,66.80
2023-02-05T02:12:17.873Z,66.80
2023-02-05T02:14:45.705Z,66.80
2023-02-05T02:17:12.688Z,66.70
2023-02-05T02:20:03.559Z,66.80
2023-02-05T02:22:49.495Z,66.60
2023-02-05T02:25:31.338Z,66.60
2023-02-05T02:28:10.487Z,66.50
2023-02-05T02:31:02.089Z,66.60
2023-02-05T02:33:36.691Z,66.60
2023-02-05T02:36:13.735Z,66.60
2023-02-05T02:38:41.710Z,66.50
2023-02-05T02:41:42.056Z,66.60
2023-02-05T02:44:14.729Z,66.30
2023-02-05T02:46:57.996Z,66.30
2023-02-05T02:50:03.826Z,66.30
2023-02-05T02:52:34.011Z,66.40
2023-02-05T02:55:05.488Z,66.50
2023-02-05T02:57:32.245Z,66.50
2023-02-05T03:00:00.041Z,66.50
2023-02-05T03:02:29.192Z,66.20
2023-02-05T03:04:57.488Z,66.10
2023-02-05T03:07:33.864Z,66.20
2023-02-05T03:10:20.814Z,66.00
2023-02-05T03:12:47.556Z,66.00
2023-02-05T03:15:14.416Z,65.90
2023-02-05T03:17:41.270Z,65.90
2023-02-05T03:20:19.963Z,65.80
2023-02-05T03:22:46.654Z,65.80
2023-02-05T03:25:13.501Z,65.70
2023-02-05T03:27:40.252Z,65.70
2023-02-05T03:30:07.690Z,65.70
2023-02-05T03:33:00.380Z,66.40
2023-02-05T03:35:36.520Z,65.70
2023-02-05T03:38:36.803Z,65.40
2023-02-05T03:41:08.181Z,65.40
2023-02-05T03:43:56.729Z,65.60
2023-02-05T03:46:39.790Z,65.40
2023-02-05T03:49:20.593Z,65.30
2023-02-05T03:51:51.540Z,65.50
2023-02-05T03:54:19.946Z,65.40
2023-02-05T03:57:19.206Z,65.30
2023-02-05T03:59:45.985Z,65.40
2023-02-05T04:02:13.066Z,65.50
2023-02-05T04:04:39.913Z,65.50
2023-02-05T04:07:06.685Z,65.50
2023-02-05T04:09:33.441Z,65.40
2023-02-05T04:12:00.239Z,65.40
2023-02-05T04:14:27.012Z,65.40
2023-02-05T04:16:53.756Z,65.40
2023-02-05T04:19:20.474Z,65.40
2023-02-05T04:21:47.192Z,65.40
2023-02-05T04:24:14.210Z,65.30
2023-02-05T04:26:41.006Z,65.30
2023-02-05T04:29:07.758Z,65.20
2023-02-05T04:31:34.574Z,64.70
2023-02-05T04:34:01.336Z,64.50
2023-02-05T04:36:28.155Z,64.60
2023-02-05T04:38:54.877Z,64.70
2023-02-05T04:41:21.631Z,64.50
2023-02-05T04:43:48.351Z,64.50
2023-02-05T04:46:15.140Z,63.80
2023-02-05T04:48:41.941Z,63.80
2023-02-05T04:51:09.535Z,63.70
2023-02-05T04:53:36.336Z,63.60
2023-02-05T04:56:07.098Z,63.60
2023-02-05T04:58:33.928Z,63.20
2023-02-05T05:01:00.738Z,63.10
2023-02-05T05:03:27.558Z,63.30
2023-02-05T05:05:54.391Z,63.00
2023-02-05T05:08:21.194Z,62.90
2023-02-05T05:10:47.927Z,62.00
2023-02-05T05:13:14.657Z,62.40
2023-02-05T05:15:41.393Z,62.00
2023-02-05T05:18:08.193Z,62.10
2023-02-05T05:20:34.914Z,61.80
2023-02-05T05:23:01.744Z,61.50
2023-02-05T05:25:28.494Z,61.40
2023-02-05T05:27:55.189Z,61.60
2023-02-05T05:30:21.999Z,60.80
2023-02-05T05:32:48.689Z,61.00
2023-02-05T05:35:15.464Z,61.00
2023-02-05T05:37:42.235Z,60.80
2023-02-05T05:40:29.102Z,60.40
2023-02-05T05:43:14.305Z,60.50
2023-02-05T05:45:41.096Z,60.50
2023-02-05T05:48:09.127Z,60.20
2023-02-05T05:50:35.996Z,59.90
2023-02-05T05:53:02.920Z,60.00
2023-02-05T05:55:29.807Z,60.10
2023-02-05T05:57:56.660Z,60.00
2023-02-05T06:00:23.451Z,60.10
2023-02-05T06:02:50.309Z,60.00
2023-02-05T06:05:17.176Z,60.30
2023-02-05T06:07:43.942Z,59.90
2023-02-05T06:10:10.749Z,59.90
2023-02-05T06:12:37.468Z,59.90
2023-02-05T06:15:04.686Z,59.80
2023-02-05T06:17:31.573Z,59.90
2023-02-05T06:19:58.307Z,59.20
2023-02-05T06:22:25.114Z,58.70
2023-02-05T06:24:51.949Z,58.60
2023-02-05T06:27:18.691Z,58.70
2023-02-05T06:29:45.437Z,58.40
2023-02-05T06:32:12.278Z,58.60
2023-02-05T06:34:39.307Z,58.20
2023-02-05T06:37:06.183Z,58.60
2023-02-05T06:39:32.964Z,58.90
2023-02-05T06:41:59.737Z,58.60
2023-02-05T06:44:26.480Z,58.10
2023-02-05T06:46:53.310Z,57.80
2023-02-05T06:49:20.328Z,57.60
2023-02-05T06:51:47.038Z,57.80
2023-02-05T06:54:13.805Z,57.70
2023-02-05T06:56:40.685Z,57.40
2023-02-05T06:59:07.424Z,57.50
2023-02-05T07:01:34.209Z,57.50
2023-02-05T07:04:00.952Z,57.90
2023-02-05T07:06:29.033Z,57.30
2023-02-05T07:08:55.832Z,57.20
2023-02-05T07:11:22.799Z,57.20
2023-02-05T07:13:49.595Z,57.20
2023-02-05T07:16:16.551Z,57.40
2023-02-05T07:18:43.284Z,57.20
2023-02-05T07:21:10.790Z,57.20
2023-02-05T07:23:37.510Z,57.30
2023-02-05T07:26:08.269Z,57.30
2023-02-05T07:28:35.014Z,57.70
2023-02-05T07:31:06.427Z,57.30
2023-02-05T07:33:33.321Z,57.00
2023-02-05T07:36:04.520Z,57.20
2023-02-05T07:38:31.358Z,57.00
2023-02-05T07:40:58.075Z,56.90
2023-02-05T07:43:24.942Z,56.80
2023-02-05T07:45:59.004Z,57.00
2023-02-05T07:48:26.084Z,57.20
2023-02-05T07:50:53.038Z,57.10
2023-02-05T07:53:19.878Z,57.20
2023-02-05T07:55:46.696Z,57.20
2023-02-05T07:58:13.478Z,57.30
2023-02-05T08:00:40.277Z,57.50
2023-02-05T08:03:07.160Z,57.70
2023-02-05T08:05:34.242Z,57.90
2023-02-05T08:08:01.145Z,58.10
2023-02-05T08:10:27.949Z,58.20
2023-02-05T08:12:54.833Z,58.50
2023-02-05T08:15:21.602Z,58.50
2023-02-05T08:17:48.424Z,58.50
2023-02-05T08:20:15.922Z,58.50
2023-02-05T08:22:43.177Z,58.60
2023-02-05T08:25:12.291Z,58.60
2023-02-05T08:27:40.239Z,58.60
2023-02-05T08:30:10.849Z,58.50
2023-02-05T08:32:37.632Z,58.60
2023-02-05T08:35:04.706Z,58.80
2023-02-05T08:37:31.596Z,59.20
2023-02-05T08:39:58.342Z,59.40
2023-02-05T08:42:25.101Z,59.40
2023-02-05T08:44:52.091Z,59.60
2023-02-05T08:47:20.366Z,59.60
2023-02-05T08:49:47.196Z,59.30
2023-02-05T08:52:14.209Z,59.00
2023-02-05T08:54:42.016Z,59.00
2023-02-05T08:57:09.098Z,59.20
2023-02-05T08:59:35.916Z,59.40
2023-02-05T09:02:02.730Z,59.60
2023-02-05T09:04:29.516Z,59.70
2023-02-05T09:06:56.291Z,59.80
2023-02-05T09:09:23.036Z,60.70
2023-02-05T09:11:50.017Z,60.00
2023-02-05T09:14:17.118Z,60.10
2023-02-05T09:16:43.906Z,60.20
2023-02-05T09:19:10.788Z,60.40
2023-02-05T09:21:37.468Z,60.60
2023-02-05T09:24:04.611Z,60.50
2023-02-05T09:26:31.416Z,61.20
2023-02-05T09:28:58.522Z,60.40
2023-02-05T09:31:25.483Z,60.70
2023-02-05T09:33:52.436Z,60.50
2023-02-05T09:36:20.589Z,60.70
2023-02-05T09:38:47.626Z,61.60
2023-02-05T09:41:14.356Z,61.00
2023-02-05T09:44:06.568Z,60.90
2023-02-05T09:46:58.783Z,60.90
2023-02-05T09:50:02.285Z,60.80
2023-02-05T09:52:37.981Z,60.90
2023-02-05T09:55:41.606Z,61.00
2023-02-05T09:58:31.593Z,61.10
2023-02-05T10:01:12.914Z,61.20
2023-02-05T10:03:44.070Z,61.30
2023-02-05T10:06:13.699Z,61.10
2023-02-05T10:09:05.350Z,61.10
2023-02-05T10:11:34.696Z,61.20
2023-02-05T10:14:33.599Z,61.30
2023-02-05T10:17:57.156Z,61.60
2023-02-05T10:20:35.991Z,61.70
2023-02-05T10:29:27.079Z,61.80
2023-02-05T10:32:03.714Z,61.60
2023-02-05T10:34:49.931Z,61.30
2023-02-05T10:37:18.637Z,61.50
2023-02-05T10:39:46.338Z,61.70
2023-02-05T10:42:21.758Z,61.90
2023-02-05T10:44:50.008Z,62.00
2023-02-05T10:47:24.041Z,62.00
2023-02-05T10:49:56.951Z,62.70
2023-02-05T10:52:23.772Z,62.00
2023-02-05T10:54:51.059Z,62.00
2023-02-05T10:57:19.080Z,61.90
2023-02-05T11:00:20.525Z,61.80
2023-02-05T11:02:52.248Z,61.80
2023-02-05T11:05:34.951Z,61.70
2023-02-05T11:08:01.874Z,61.40
2023-02-05T11:10:33.880Z,61.60
2023-02-05T11:13:20.673Z,61.70
2023-02-05T11:15:58.056Z,61.70
2023-02-05T11:18:27.592Z,61.40
2023-02-05T11:21:02.034Z,61.80
2023-02-05T11:23:33.520Z,61.40
2023-02-05T11:26:01.746Z,61.30
2023-02-05T11:28:30.135Z,61.00
2023-02-05T11:30:57.722Z,60.20
2023-02-05T11:33:27.327Z,59.90
2023-02-05T11:35:59.119Z,59.60
2023-02-05T11:38:38.410Z,59.90
2023-02-05T11:41:07.250Z,59.70
2023-02-05T11:43:55.208Z,59.30
2023-02-05T11:46:23.206Z,59.30
2023-02-05T11:48:59.044Z,59.20
2023-02-05T11:51:45.828Z,59.50
2023-02-05T11:54:20.317Z,59.50
2023-02-05T11:57:24.159Z,58.70
2023-02-05T12:00:02.274Z,58.20
2023-02-05T12:02:31.793Z,58.60
2023-02-05T12:05:35.740Z,59.10
2023-02-05T12:08:21.314Z,58.90
2023-02-05T12:11:09.740Z,58.30
2023-02-05T12:14:00.555Z,58.70
2023-02-05T12:16:48.341Z,59.00
2023-02-05T12:19:22.201Z,58.60
2023-02-05T12:21:52.784Z,58.00
2023-02-05T12:24:58.265Z,57.60
2023-02-05T12:27:49.554Z,57.70
2023-02-05T12:30:34.142Z,57.20
2023-02-05T12:33:06.597Z,57.40
2023-02-05T12:35:53.116Z,57.70
2023-02-05T12:38:31.994Z,57.70
2023-02-05T12:41:11.126Z,57.70
2023-02-05T12:43:38.820Z,57.90
2023-02-05T12:46:27.010Z,57.50
2023-02-05T12:49:22.807Z,57.40
2023-02-05T12:52:15.037Z,57.30
2023-02-05T12:55:00.894Z,57.20
2023-02-05T12:57:39.009Z,57.10
2023-02-05T13:00:11.031Z,57.00
2023-02-05T13:02:51.285Z,56.90
2023-02-05T13:05:25.393Z,57.10
2023-02-05T13:08:13.860Z,57.10
2023-02-05T13:10:50.584Z,57.60
2023-02-05T13:13:25.256Z,57.40
2023-02-05T13:16:14.254Z,57.70
2023-02-05T13:18:43.378Z,56.70
2023-02-05T13:21:34.674Z,56.60
2023-02-05T13:24:41.340Z,57.00
2023-02-05T13:27:41.781Z,57.20
2023-02-05T13:30:15.588Z,57.90
2023-02-05T13:32:43.005Z,57.70
2023-02-05T13:35:09.950Z,57.90
2023-02-05T13:37:42.762Z,57.70
2023-02-05T13:40:18.491Z,57.50
2023-02-05T13:42:50.972Z,57.50
2023-02-05T13:45:33.437Z,57.40
2023-02-05T13:48:18.913Z,57.70
2023-02-05T13:50:54.631Z,57.50
2023-02-05T13:53:30.362Z,57.50
2023-02-05T13:56:34.888Z,57.30
2023-02-05T13:59:04.805Z,57.40
2023-02-05T14:01:34.772Z,57.50
2023-02-05T14:04:04.846Z,56.10
2023-02-05T14:06:33.723Z,55.80
2023-02-05T14:09:40.516Z,55.90
2023-02-05T14:12:12.208Z,56.10
2023-02-05T14:14:41.116Z,56.30
2023-02-05T14:17:31.328Z,56.40
2023-02-05T14:19:58.538Z,56.10
2023-02-05T14:22:39.506Z,55.60
2023-02-05T14:25:43.751Z,55.40
2023-02-05T14:28:16.586Z,55.50
2023-02-05T14:31:03.638Z,55.90
2023-02-05T14:33:45.798Z,55.90
2023-02-05T14:36:17.988Z,56.10
2023-02-05T14:38:45.714Z,55.60
2023-02-05T14:41:14.340Z,55.50
2023-02-05T14:43:42.090Z,55.60
2023-02-05T14:46:40.205Z,55.70
2023-02-05T14:49:08.262Z,55.20
2023-02-05T14:51:40.334Z,55.00
2023-02-05T14:54:18.357Z,55.10
2023-02-05T14:56:46.756Z,55.30
2023-02-05T14:59:29.169Z,54.90
2023-02-05T15:01:57.093Z,55.20
2023-02-05T15:04:54.600Z,55.00
2023-02-05T15:07:26.012Z,55.10
2023-02-05T15:10:19.188Z,55.50
2023-02-05T15:13:12.125Z,55.50
2023-02-05T15:15:39.008Z,55.40
2023-02-05T15:18:09.739Z,55.20
2023-02-05T15:20:38.775Z,55.40
2023-02-05T15:23:20.950Z,55.30
2023-02-05T15:25:55.360Z,55.20
2023-02-05T15:28:27.208Z,55.40
2023-02-05T15:31:28.141Z,54.80
2023-02-05T15:34:20.279Z,55.30
2023-02-05T15:36:56.234Z,55.10
2023-02-05T15:39:30.457Z,54.90
2023-02-05T15:41:58.932Z,55.20
2023-02-05T15:44:35.660Z,55.90
2023-02-05T15:47:07.946Z,55.50
2023-02-05T15:49:37.935Z,55.60
2023-02-05T15:52:05.508Z,55.80
2023-02-05T15:54:33.229Z,55.90
2023-02-05T15:57:00.037Z,55.90
2023-02-05T15:59:30.057Z,56.00
2023-02-05T16:02:20.412Z,56.10
2023-02-05T16:04:53.836Z,56.30
2023-02-05T16:07:26.433Z,56.40
2023-02-05T16:09:56.156Z,56.60
2023-02-05T16:12:23.114Z,56.50
2023-02-05T16:15:04.768Z,56.50
2023-02-05T16:17:40.892Z,56.70
2023-02-05T16:20:13.516Z,56.70
2023-02-05T16:22:45.009Z,56.60
2023-02-05T16:25:24.042Z,57.00
2023-02-05T16:27:50.769Z,57.00
2023-02-05T16:30:27.827Z,57.30
2023-02-05T16:32:54.660Z,57.30
2023-02-05T16:35:25.318Z,57.60
2023-02-05T16:37:52.061Z,57.80
2023-02-05T16:40:40.348Z,57.80
2023-02-05T16:43:39.196Z,57.70
2023-02-05T16:46:08.993Z,57.80
2023-02-05T16:48:45.133Z,57.80
2023-02-05T16:51:47.060Z,57.90
2023-02-05T16:54:13.781Z,58.00
2023-02-05T16:56:49.497Z,57.90
2023-02-05T16:59:30.781Z,57.90
2023-02-05T17:01:59.514Z,57.90
2023-02-05T17:04:31.882Z,57.90
2023-02-05T17:07:00.114Z,57.80
2023-02-05T17:09:44.585Z,57.80
2023-02-05T17:12:22.710Z,58.10
2023-02-05T17:15:13.633Z,58.00
2023-02-05T17:17:49.939Z,58.00
2023-02-05T17:20:16.677Z,57.90
2023-02-05T17:22:58.798Z,58.00
2023-02-05T17:25:29.059Z,58.20
2023-02-05T17:27:55.968Z,58.20
2023-02-05T17:30:22.737Z,58.10
2023-02-05T17:32:50.695Z,58.20
2023-02-05T17:35:17.680Z,58.40
2023-02-05T17:37:44.356Z,58.30
2023-02-05T17:40:14.529Z,58.30
2023-02-05T17:42:41.299Z,58.30
2023-02-05T17:45:18.738Z,58.30
2023-02-05T17:47:45.566Z,58.40
2023-02-05T17:50:12.484Z,58.50
2023-02-05T17:52:39.338Z,58.40
2023-02-05T17:55:06.437Z,58.30
2023-02-05T17:57:34.993Z,58.30
2023-02-05T18:00:01.765Z,58.40
2023-02-05T18:02:28.576Z,58.50
2023-02-05T18:04:55.510Z,58.60
2023-02-05T18:07:36.923Z,58.60
2023-02-05T18:10:03.943Z,58.50
2023-02-05T18:12:30.770Z,58.60
2023-02-05T18:14:57.896Z,58.50
2023-02-05T18:17:24.763Z,59.10
2023-02-05T18:19:51.575Z,58.50
2023-02-05T18:22:18.399Z,58.70
2023-02-05T18:24:45.157Z,58.50
2023-02-05T18:27:12.245Z,58.50
2023-02-05T18:29:39.185Z,58.50
2023-02-05T18:32:06.051Z,58.60
2023-02-05T18:34:32.846Z,58.50
2023-02-05T18:36:59.786Z,58.50
2023-02-05T18:39:28.606Z,58.60
2023-02-05T18:41:56.372Z,58.40
2023-02-05T18:44:23.186Z,58.60
2023-02-05T18:46:49.981Z,58.60
2023-02-05T18:49:16.734Z,58.70
2023-02-05T18:51:43.752Z,58.70
2023-02-05T18:54:10.602Z,58.70
2023-02-05T18:56:37.486Z,58.60
2023-02-05T18:59:06.498Z,58.70
2023-02-05T19:01:34.949Z,59.30
2023-02-05T19:04:03.027Z,58.70
2023-02-05T19:06:29.803Z,58.90
2023-02-05T19:08:57.275Z,58.80
2023-02-05T19:11:24.826Z,58.70
2023-02-05T19:13:59.309Z,58.80
2023-02-05T19:16:26.424Z,58.70
2023-02-05T19:18:53.258Z,58.80
2023-02-05T19:21:20.542Z,58.70
2023-02-05T19:23:50.270Z,58.80
2023-02-05T19:26:18.695Z,58.90
2023-02-05T19:28:46.125Z,59.00
2023-02-05T19:31:14.083Z,59.00
2023-02-05T19:33:41.045Z,58.90
2023-02-05T19:36:08.525Z,58.80
2023-02-05T19:38:36.173Z,58.70
2023-02-05T19:41:07.424Z,59.50
2023-02-05T19:43:34.263Z,58.90
2023-02-05T19:46:05.062Z,58.80
2023-02-05T19:48:32.109Z,58.80
2023-02-05T19:51:05.994Z,58.70
2023-02-05T19:53:33.366Z,58.90
2023-02-05T19:56:07.032Z,58.90
2023-02-05T19:58:34.876Z,59.10
2023-02-05T20:01:01.581Z,59.10
2023-02-05T20:03:29.198Z,59.10
2023-02-05T20:05:56.060Z,59.00
2023-02-05T20:08:22.807Z,58.90
2023-02-05T20:10:57.498Z,59.10
2023-02-05T20:13:28.172Z,59.10
2023-02-05T20:15:55.107Z,59.20
2023-02-05T20:18:22.142Z,59.20
2023-02-05T20:20:49.082Z,59.10
2023-02-05T20:23:15.971Z,59.20
2023-02-05T20:25:42.742Z,59.10
2023-02-05T20:28:09.544Z,59.00
2023-02-05T20:30:54.943Z,59.00
2023-02-05T20:33:21.744Z,59.20
2023-02-05T20:35:48.529Z,59.20
2023-02-05T20:38:15.292Z,59.30
2023-02-05T20:40:42.095Z,59.10
2023-02-05T20:43:09.223Z,59.30
2023-02-05T20:45:36.054Z,59.90
2023-02-05T20:48:02.859Z,59.40
2023-02-05T20:50:29.613Z,59.30
2023-02-05T20:52:56.597Z,59.30
2023-02-05T20:55:23.361Z,59.40
2023-02-05T20:57:50.092Z,59.30
2023-02-05T21:00:17.414Z,59.30
2023-02-05T21:02:44.174Z,59.20
2023-02-05T21:05:10.849Z,59.20
2023-02-05T21:07:37.578Z,59.20
2023-02-05T21:10:05.741Z,59.60
2023-02-05T21:12:32.494Z,59.10
2023-02-05T21:14:59.521Z,59.20
2023-02-05T21:17:26.266Z,59.10
2023-02-05T21:19:53.055Z,59.20
2023-02-05T21:22:19.798Z,59.10
2023-02-05T21:24:46.491Z,59.50
2023-02-05T21:27:13.295Z,59.40
2023-02-05T21:29:40.097Z,59.20
2023-02-05T21:32:08.128Z,59.20
2023-02-05T21:34:34.861Z,59.30
2023-02-05T21:37:01.704Z,59.00
2023-02-05T21:39:28.491Z,59.60
2023-02-05T21:41:55.272Z,58.60
2023-02-05T21:44:22.212Z,58.70
2023-02-05T21:46:48.999Z,58.80
2023-02-05T21:49:15.775Z,58.90
2023-02-05T21:51:42.598Z,58.90
2023-02-05T21:54:09.853Z,58.80
2023-02-05T21:56:45.707Z,58.90
2023-02-05T21:59:12.769Z,58.80
2023-02-05T22:01:39.687Z,58.60
2023-02-05T22:04:12.084Z,58.60
2023-02-05T22:06:38.897Z,59.40
2023-02-05T22:09:09.491Z,58.90
2023-02-05T22:11:36.799Z,58.80
2023-02-05T22:14:03.603Z,58.70
2023-02-05T22:16:32.124Z,58.60
2023-02-05T22:18:59.090Z,58.80
2023-02-05T22:21:36.772Z,59.00
2023-02-05T22:24:03.930Z,58.90
2023-02-05T22:26:33.115Z,58.80
2023-02-05T22:29:00.681Z,59.60
2023-02-05T22:31:28.294Z,59.10
2023-02-05T22:33:55.167Z,59.00
2023-02-05T22:36:24.761Z,58.40
2023-02-05T22:38:51.728Z,58.40
2023-02-05T22:41:26.238Z,58.60
2023-02-05T22:43:54.441Z,58.60
2023-02-05T22:46:22.788Z,58.80
2023-02-05T22:48:50.212Z,58.80
2023-02-05T22:51:19.159Z,58.90
2023-02-05T22:53:45.930Z,58.80
2023-02-05T22:56:12.834Z,58.90
2023-02-05T22:58:41.703Z,58.80
2023-02-05T23:01:28.614Z,58.60
2023-02-05T23:03:56.077Z,58.60
2023-02-05T23:06:27.719Z,58.40
2023-02-05T23:08:59.193Z,58.40
2023-02-05T23:11:26.511Z,58.50
2023-02-05T23:13:53.398Z,58.70
2023-02-05T23:16:25.017Z,59.10
2023-02-05T23:18:52.360Z,58.70
2023-02-05T23:21:22.554Z,58.80
2023-02-05T23:23:50.010Z,58.90
2023-02-05T23:26:19.067Z,58.90
2023-02-05T23:28:45.914Z,58.80
2023-02-05T23:31:12.830Z,58.80
2023-02-05T23:33:39.590Z,58.80
2023-02-05T23:36:06.745Z,58.80
2023-02-05T23:38:33.660Z,58.60
2023-02-05T23:41:00.584Z,58.60
2023-02-05T23:43:27.367Z,58.70
2023-02-05T23:45:54.399Z,58.70
2023-02-05T23:48:21.240Z,58.80
2023-02-05T23:50:51.890Z,58.60
2023-02-05T23:53:21.136Z,58.60
2023-02-05T23:55:48.467Z,58.40
2023-02-05T23:58:15.304Z,58.20
